sensor_id;sensor_type;location;lat;lon;timestamp;temperature;humidity
22714;DHT22;11524;50.846;4.326;2023-06-14T00:00:40;28.60;38.60
22714;DHT22;11524;50.846;4.326;2023-06-14T00:03:10;28.60;38.40
22714;DHT22;11524;50.846;4.326;2023-06-14T00:05:37;28.50;38.30
22714;DHT22;11524;50.846;4.326;2023-06-14T00:08:06;28.50;38.50
22714;DHT22;11524;50.846;4.326;2023-06-14T00:10:36;28.50;38.60
22714;DHT22;11524;50.846;4.326;2023-06-14T00:13:02;28.50;38.40
22714;DHT22;11524;50.846;4.326;2023-06-14T00:15:30;28.50;38.40
22714;DHT22;11524;50.846;4.326;2023-06-14T00:17:56;28.50;38.40
22714;DHT22;11524;50.846;4.326;2023-06-14T00:20:25;28.50;38.40
22714;DHT22;11524;50.846;4.326;2023-06-14T00:22:51;28.50;38.50
22714;DHT22;11524;50.846;4.326;2023-06-14T00:25:17;28.50;38.40
22714;DHT22;11524;50.846;4.326;2023-06-14T00:27:43;28.50;38.20
22714;DHT22;11524;50.846;4.326;2023-06-14T00:30:08;28.40;38.00
22714;DHT22;11524;50.846;4.326;2023-06-14T00:32:34;28.40;37.90
22714;DHT22;11524;50.846;4.326;2023-06-14T00:35:00;28.40;38.10
22714;DHT22;11524;50.846;4.326;2023-06-14T00:37:25;28.40;38.10
22714;DHT22;11524;50.846;4.326;2023-06-14T00:39:51;28.40;37.80
22714;DHT22;11524;50.846;4.326;2023-06-14T00:42:24;28.40;38.00
22714;DHT22;11524;50.846;4.326;2023-06-14T00:44:50;28.40;38.00
22714;DHT22;11524;50.846;4.326;2023-06-14T00:47:16;28.40;38.00
22714;DHT22;11524;50.846;4.326;2023-06-14T00:49:42;28.40;38.60
22714;DHT22;11524;50.846;4.326;2023-06-14T00:52:08;28.40;37.80
22714;DHT22;11524;50.846;4.326;2023-06-14T00:54:37;28.40;37.90
22714;DHT22;11524;50.846;4.326;2023-06-14T00:57:03;28.40;38.50
22714;DHT22;11524;50.846;4.326;2023-06-14T00:59:29;28.30;37.90
22714;DHT22;11524;50.846;4.326;2023-06-14T01:01:55;28.40;37.90
22714;DHT22;11524;50.846;4.326;2023-06-14T01:04:21;28.30;37.90
22714;DHT22;11524;50.846;4.326;2023-06-14T01:06:53;28.40;38.10
22714;DHT22;11524;50.846;4.326;2023-06-14T01:09:50;28.30;37.90
22714;DHT22;11524;50.846;4.326;2023-06-14T01:12:52;28.30;38.20
22714;DHT22;11524;50.846;4.326;2023-06-14T01:15:22;28.30;38.00
22714;DHT22;11524;50.846;4.326;2023-06-14T01:17:52;28.30;38.10
22714;DHT22;11524;50.846;4.326;2023-06-14T01:20:22;28.30;38.10
22714;DHT22;11524;50.846;4.326;2023-06-14T01:22:52;28.30;38.20
22714;DHT22;11524;50.846;4.326;2023-06-14T01:25:19;28.30;38.30
22714;DHT22;11524;50.846;4.326;2023-06-14T01:27:48;28.20;38.30
22714;DHT22;11524;50.846;4.326;2023-06-14T01:30:15;28.30;38.20
22714;DHT22;11524;50.846;4.326;2023-06-14T01:32:42;28.20;37.80
22714;DHT22;11524;50.846;4.326;2023-06-14T01:35:08;28.20;37.80
22714;DHT22;11524;50.846;4.326;2023-06-14T01:37:33;28.20;37.80
22714;DHT22;11524;50.846;4.326;2023-06-14T01:40:00;28.20;37.90
22714;DHT22;11524;50.846;4.326;2023-06-14T01:42:26;28.20;37.90
22714;DHT22;11524;50.846;4.326;2023-06-14T01:44:53;28.20;37.90
22714;DHT22;11524;50.846;4.326;2023-06-14T01:47:19;28.20;37.70
22714;DHT22;11524;50.846;4.326;2023-06-14T01:49:46;28.20;37.70
22714;DHT22;11524;50.846;4.326;2023-06-14T01:52:12;28.20;37.80
22714;DHT22;11524;50.846;4.326;2023-06-14T01:54:38;28.20;37.80
22714;DHT22;11524;50.846;4.326;2023-06-14T01:57:08;28.10;37.70
22714;DHT22;11524;50.846;4.326;2023-06-14T01:59:34;28.10;37.70
22714;DHT22;11524;50.846;4.326;2023-06-14T02:02:02;28.10;37.50
22714;DHT22;11524;50.846;4.326;2023-06-14T02:04:28;28.10;37.80
22714;DHT22;11524;50.846;4.326;2023-06-14T02:06:54;28.10;37.90
22714;DHT22;11524;50.846;4.326;2023-06-14T02:09:20;28.10;38.00
22714;DHT22;11524;50.846;4.326;2023-06-14T02:11:45;28.10;37.90
22714;DHT22;11524;50.846;4.326;2023-06-14T02:14:11;28.10;38.00
22714;DHT22;11524;50.846;4.326;2023-06-14T02:16:37;28.10;38.20
22714;DHT22;11524;50.846;4.326;2023-06-14T02:19:04;28.00;37.90
22714;DHT22;11524;50.846;4.326;2023-06-14T02:21:30;28.00;38.00
22714;DHT22;11524;50.846;4.326;2023-06-14T02:23:56;28.00;37.90
22714;DHT22;11524;50.846;4.326;2023-06-14T02:26:21;28.00;38.00
22714;DHT22;11524;50.846;4.326;2023-06-14T02:28:48;28.00;38.20
22714;DHT22;11524;50.846;4.326;2023-06-14T02:31:14;28.00;38.00
22714;DHT22;11524;50.846;4.326;2023-06-14T02:33:40;28.00;38.30
22714;DHT22;11524;50.846;4.326;2023-06-14T02:36:06;28.00;38.40
22714;DHT22;11524;50.846;4.326;2023-06-14T02:38:31;27.90;38.30
22714;DHT22;11524;50.846;4.326;2023-06-14T02:40:57;27.90;38.30
22714;DHT22;11524;50.846;4.326;2023-06-14T02:43:24;27.90;38.10
22714;DHT22;11524;50.846;4.326;2023-06-14T02:45:50;27.90;38.20
22714;DHT22;11524;50.846;4.326;2023-06-14T02:48:16;27.90;38.20
22714;DHT22;11524;50.846;4.326;2023-06-14T02:50:41;27.90;38.00
22714;DHT22;11524;50.846;4.326;2023-06-14T02:53:07;27.90;37.90
22714;DHT22;11524;50.846;4.326;2023-06-14T02:55:33;27.80;37.90
22714;DHT22;11524;50.846;4.326;2023-06-14T02:58:04;27.80;37.90
22714;DHT22;11524;50.846;4.326;2023-06-14T03:00:29;27.80;38.00
22714;DHT22;11524;50.846;4.326;2023-06-14T03:02:56;27.80;38.20
22714;DHT22;11524;50.846;4.326;2023-06-14T03:05:21;27.80;38.20
22714;DHT22;11524;50.846;4.326;2023-06-14T03:07:48;27.80;38.20
22714;DHT22;11524;50.846;4.326;2023-06-14T03:10:13;27.80;38.00
22714;DHT22;11524;50.846;4.326;2023-06-14T03:12:39;27.80;38.40
22714;DHT22;11524;50.846;4.326;2023-06-14T03:15:05;27.80;38.20
22714;DHT22;11524;50.846;4.326;2023-06-14T03:17:31;27.80;38.00
22714;DHT22;11524;50.846;4.326;2023-06-14T03:20:00;27.80;38.20
22714;DHT22;11524;50.846;4.326;2023-06-14T03:22:25;27.70;38.20
22714;DHT22;11524;50.846;4.326;2023-06-14T03:24:52;27.70;38.00
22714;DHT22;11524;50.846;4.326;2023-06-14T03:27:19;27.70;38.00
22714;DHT22;11524;50.846;4.326;2023-06-14T03:29:45;27.70;38.00
22714;DHT22;11524;50.846;4.326;2023-06-14T03:32:11;27.70;37.90
22714;DHT22;11524;50.846;4.326;2023-06-14T03:34:36;27.70;38.00
22714;DHT22;11524;50.846;4.326;2023-06-14T03:37:04;27.70;37.80
22714;DHT22;11524;50.846;4.326;2023-06-14T03:39:30;27.70;38.10
22714;DHT22;11524;50.846;4.326;2023-06-14T03:41:55;27.70;38.00
22714;DHT22;11524;50.846;4.326;2023-06-14T03:44:21;27.70;38.00
22714;DHT22;11524;50.846;4.326;2023-06-14T03:46:47;27.70;38.00
22714;DHT22;11524;50.846;4.326;2023-06-14T03:49:13;27.70;37.80
22714;DHT22;11524;50.846;4.326;2023-06-14T03:51:39;27.70;37.70
22714;DHT22;11524;50.846;4.326;2023-06-14T03:54:05;27.70;37.80
22714;DHT22;11524;50.846;4.326;2023-06-14T03:56:31;27.70;37.80
22714;DHT22;11524;50.846;4.326;2023-06-14T03:58:57;27.70;37.80
22714;DHT22;11524;50.846;4.326;2023-06-14T04:01:23;27.70;37.80
22714;DHT22;11524;50.846;4.326;2023-06-14T04:03:55;27.70;37.60
22714;DHT22;11524;50.846;4.326;2023-06-14T04:06:21;27.60;37.60
22714;DHT22;11524;50.846;4.326;2023-06-14T04:08:47;27.60;37.80
22714;DHT22;11524;50.846;4.326;2023-06-14T04:11:15;27.60;37.80
22714;DHT22;11524;50.846;4.326;2023-06-14T04:13:40;27.60;38.30
22714;DHT22;11524;50.846;4.326;2023-06-14T04:16:06;27.70;37.80
22714;DHT22;11524;50.846;4.326;2023-06-14T04:18:32;27.60;37.60
22714;DHT22;11524;50.846;4.326;2023-06-14T04:20:57;27.60;37.70
22714;DHT22;11524;50.846;4.326;2023-06-14T04:23:23;27.60;37.80
22714;DHT22;11524;50.846;4.326;2023-06-14T04:25:49;27.60;37.70
22714;DHT22;11524;50.846;4.326;2023-06-14T04:28:15;27.70;37.70
22714;DHT22;11524;50.846;4.326;2023-06-14T04:30:42;27.70;37.60
22714;DHT22;11524;50.846;4.326;2023-06-14T04:33:07;27.70;35.20
22714;DHT22;11524;50.846;4.326;2023-06-14T04:35:35;27.70;35.60
22714;DHT22;11524;50.846;4.326;2023-06-14T04:38:01;27.70;36.20
22714;DHT22;11524;50.846;4.326;2023-06-14T04:40:30;27.60;36.30
22714;DHT22;11524;50.846;4.326;2023-06-14T04:42:56;27.60;36.40
22714;DHT22;11524;50.846;4.326;2023-06-14T04:45:22;27.70;36.30
22714;DHT22;11524;50.846;4.326;2023-06-14T04:47:49;27.70;36.00
22714;DHT22;11524;50.846;4.326;2023-06-14T04:50:16;27.70;35.70
22714;DHT22;11524;50.846;4.326;2023-06-14T04:52:41;27.80;35.60
22714;DHT22;11524;50.846;4.326;2023-06-14T04:55:08;27.80;35.70
22714;DHT22;11524;50.846;4.326;2023-06-14T04:57:33;27.80;36.10
22714;DHT22;11524;50.846;4.326;2023-06-14T05:00:00;27.90;35.40
22714;DHT22;11524;50.846;4.326;2023-06-14T05:02:26;27.90;35.20
22714;DHT22;11524;50.846;4.326;2023-06-14T05:04:53;27.90;35.10
22714;DHT22;11524;50.846;4.326;2023-06-14T05:07:19;27.90;35.10
22714;DHT22;11524;50.846;4.326;2023-06-14T05:09:45;27.90;35.00
22714;DHT22;11524;50.846;4.326;2023-06-14T05:12:11;27.90;35.30
22714;DHT22;11524;50.846;4.326;2023-06-14T05:14:37;27.90;35.10
22714;DHT22;11524;50.846;4.326;2023-06-14T05:17:02;27.90;35.30
22714;DHT22;11524;50.846;4.326;2023-06-14T05:19:28;27.90;35.20
22714;DHT22;11524;50.846;4.326;2023-06-14T05:21:54;27.90;35.00
22714;DHT22;11524;50.846;4.326;2023-06-14T05:24:20;27.70;33.90
22714;DHT22;11524;50.846;4.326;2023-06-14T05:26:46;26.90;35.50
22714;DHT22;11524;50.846;4.326;2023-06-14T05:29:15;26.30;36.60
22714;DHT22;11524;50.846;4.326;2023-06-14T05:31:40;25.90;37.30
22714;DHT22;11524;50.846;4.326;2023-06-14T05:34:06;25.60;38.00
22714;DHT22;11524;50.846;4.326;2023-06-14T05:36:31;25.40;38.10
22714;DHT22;11524;50.846;4.326;2023-06-14T05:38:57;25.20;38.10
22714;DHT22;11524;50.846;4.326;2023-06-14T05:41:28;24.90;38.60
22714;DHT22;11524;50.846;4.326;2023-06-14T05:43:54;24.60;39.60
22714;DHT22;11524;50.846;4.326;2023-06-14T05:46:21;24.40;40.10
22714;DHT22;11524;50.846;4.326;2023-06-14T05:48:48;24.10;40.30
22714;DHT22;11524;50.846;4.326;2023-06-14T05:51:14;23.90;40.50
22714;DHT22;11524;50.846;4.326;2023-06-14T05:53:40;23.80;40.80
22714;DHT22;11524;50.846;4.326;2023-06-14T05:56:05;23.70;41.10
22714;DHT22;11524;50.846;4.326;2023-06-14T05:58:31;23.60;41.30
22714;DHT22;11524;50.846;4.326;2023-06-14T06:00:57;23.50;41.50
22714;DHT22;11524;50.846;4.326;2023-06-14T06:03:23;23.50;41.50
22714;DHT22;11524;50.846;4.326;2023-06-14T06:05:48;23.40;41.60
22714;DHT22;11524;50.846;4.326;2023-06-14T06:08:14;23.50;41.80
22714;DHT22;11524;50.846;4.326;2023-06-14T06:10:42;23.40;41.60
22714;DHT22;11524;50.846;4.326;2023-06-14T06:13:07;23.40;41.80
22714;DHT22;11524;50.846;4.326;2023-06-14T06:15:33;23.40;41.70
22714;DHT22;11524;50.846;4.326;2023-06-14T06:17:58;23.40;41.70
22714;DHT22;11524;50.846;4.326;2023-06-14T06:20:24;23.60;41.70
22714;DHT22;11524;50.846;4.326;2023-06-14T06:23:00;23.70;41.20
22714;DHT22;11524;50.846;4.326;2023-06-14T06:25:26;23.70;41.30
22714;DHT22;11524;50.846;4.326;2023-06-14T06:27:53;23.70;41.40
22714;DHT22;11524;50.846;4.326;2023-06-14T06:30:20;23.70;41.40
22714;DHT22;11524;50.846;4.326;2023-06-14T06:32:48;23.90;41.20
22714;DHT22;11524;50.846;4.326;2023-06-14T06:35:14;24.30;40.40
22714;DHT22;11524;50.846;4.326;2023-06-14T06:37:42;24.70;39.80
22714;DHT22;11524;50.846;4.326;2023-06-14T06:40:08;25.00;39.60
22714;DHT22;11524;50.846;4.326;2023-06-14T06:42:34;25.40;39.40
22714;DHT22;11524;50.846;4.326;2023-06-14T06:45:00;25.70;38.90
22714;DHT22;11524;50.846;4.326;2023-06-14T06:47:26;26.20;38.40
22714;DHT22;11524;50.846;4.326;2023-06-14T06:49:52;26.70;37.80
22714;DHT22;11524;50.846;4.326;2023-06-14T06:52:17;27.20;37.00
22714;DHT22;11524;50.846;4.326;2023-06-14T06:54:43;27.70;36.30
22714;DHT22;11524;50.846;4.326;2023-06-14T06:57:08;28.20;35.90
22714;DHT22;11524;50.846;4.326;2023-06-14T06:59:36;28.50;35.10
22714;DHT22;11524;50.846;4.326;2023-06-14T07:02:01;28.90;34.50
22714;DHT22;11524;50.846;4.326;2023-06-14T07:04:27;29.20;33.80
22714;DHT22;11524;50.846;4.326;2023-06-14T07:06:53;29.50;33.30
22714;DHT22;11524;50.846;4.326;2023-06-14T07:09:18;29.80;32.80
22714;DHT22;11524;50.846;4.326;2023-06-14T07:11:47;30.00;32.20
22714;DHT22;11524;50.846;4.326;2023-06-14T07:14:12;30.30;32.00
22714;DHT22;11524;50.846;4.326;2023-06-14T07:16:40;30.40;31.60
22714;DHT22;11524;50.846;4.326;2023-06-14T07:19:06;30.60;31.40
22714;DHT22;11524;50.846;4.326;2023-06-14T07:21:32;30.80;31.00
22714;DHT22;11524;50.846;4.326;2023-06-14T07:23:58;31.00;30.90
22714;DHT22;11524;50.846;4.326;2023-06-14T07:26:23;31.20;30.60
22714;DHT22;11524;50.846;4.326;2023-06-14T07:28:49;31.30;30.40
22714;DHT22;11524;50.846;4.326;2023-06-14T07:31:15;31.50;30.20
22714;DHT22;11524;50.846;4.326;2023-06-14T07:33:41;31.60;30.00
22714;DHT22;11524;50.846;4.326;2023-06-14T07:36:07;31.80;30.00
22714;DHT22;11524;50.846;4.326;2023-06-14T07:38:42;31.90;29.90
22714;DHT22;11524;50.846;4.326;2023-06-14T07:41:08;32.00;29.90
22714;DHT22;11524;50.846;4.326;2023-06-14T07:43:34;32.10;29.80
22714;DHT22;11524;50.846;4.326;2023-06-14T07:45:59;32.20;29.80
22714;DHT22;11524;50.846;4.326;2023-06-14T07:48:25;32.20;29.70
22714;DHT22;11524;50.846;4.326;2023-06-14T07:50:53;32.40;29.60
22714;DHT22;11524;50.846;4.326;2023-06-14T07:53:19;32.30;29.80
22714;DHT22;11524;50.846;4.326;2023-06-14T07:55:45;32.30;29.70
22714;DHT22;11524;50.846;4.326;2023-06-14T07:58:14;32.30;29.70
22714;DHT22;11524;50.846;4.326;2023-06-14T08:00:41;32.20;29.70
22714;DHT22;11524;50.846;4.326;2023-06-14T08:03:07;32.10;29.70
22714;DHT22;11524;50.846;4.326;2023-06-14T08:05:52;32.10;29.80
22714;DHT22;11524;50.846;4.326;2023-06-14T08:08:18;31.90;29.90
22714;DHT22;11524;50.846;4.326;2023-06-14T08:10:44;31.90;30.00
22714;DHT22;11524;50.846;4.326;2023-06-14T08:13:09;31.80;30.00
22714;DHT22;11524;50.846;4.326;2023-06-14T08:15:35;31.70;30.10
22714;DHT22;11524;50.846;4.326;2023-06-14T08:18:04;31.70;30.30
22714;DHT22;11524;50.846;4.326;2023-06-14T08:20:30;31.60;30.70
22714;DHT22;11524;50.846;4.326;2023-06-14T08:22:57;31.50;30.80
22714;DHT22;11524;50.846;4.326;2023-06-14T08:25:24;31.40;31.70
22714;DHT22;11524;50.846;4.326;2023-06-14T08:27:50;31.40;31.30
22714;DHT22;11524;50.846;4.326;2023-06-14T08:30:15;31.40;31.40
22714;DHT22;11524;50.846;4.326;2023-06-14T08:32:43;31.30;31.70
22714;DHT22;11524;50.846;4.326;2023-06-14T08:35:08;31.30;32.10
22714;DHT22;11524;50.846;4.326;2023-06-14T08:37:41;31.40;32.90
22714;DHT22;11524;50.846;4.326;2023-06-14T08:40:33;31.40;32.70
22714;DHT22;11524;50.846;4.326;2023-06-14T08:43:02;31.50;32.70
22714;DHT22;11524;50.846;4.326;2023-06-14T08:45:27;31.60;32.70
22714;DHT22;11524;50.846;4.326;2023-06-14T08:47:53;31.70;32.30
22714;DHT22;11524;50.846;4.326;2023-06-14T08:50:32;31.90;32.20
22714;DHT22;11524;50.846;4.326;2023-06-14T08:53:00;32.10;32.00
22714;DHT22;11524;50.846;4.326;2023-06-14T08:55:31;32.30;31.80
22714;DHT22;11524;50.846;4.326;2023-06-14T08:57:58;32.40;31.70
22714;DHT22;11524;50.846;4.326;2023-06-14T09:00:27;32.60;31.50
22714;DHT22;11524;50.846;4.326;2023-06-14T09:02:53;32.70;31.10
22714;DHT22;11524;50.846;4.326;2023-06-14T09:05:26;32.80;30.80
22714;DHT22;11524;50.846;4.326;2023-06-14T09:07:52;32.90;31.00
22714;DHT22;11524;50.846;4.326;2023-06-14T09:10:18;33.00;31.00
22714;DHT22;11524;50.846;4.326;2023-06-14T09:12:44;32.90;30.80
22714;DHT22;11524;50.846;4.326;2023-06-14T09:15:10;33.00;30.80
22714;DHT22;11524;50.846;4.326;2023-06-14T09:17:40;33.00;30.90
22714;DHT22;11524;50.846;4.326;2023-06-14T09:20:07;32.90;31.00
22714;DHT22;11524;50.846;4.326;2023-06-14T09:22:41;32.90;31.20
22714;DHT22;11524;50.846;4.326;2023-06-14T09:25:07;32.80;31.10
22714;DHT22;11524;50.846;4.326;2023-06-14T09:27:33;32.70;31.20
22714;DHT22;11524;50.846;4.326;2023-06-14T09:29:59;32.60;31.40
22714;DHT22;11524;50.846;4.326;2023-06-14T09:32:25;32.50;31.50
22714;DHT22;11524;50.846;4.326;2023-06-14T09:34:51;32.40;31.70
22714;DHT22;11524;50.846;4.326;2023-06-14T09:37:30;32.30;31.90
22714;DHT22;11524;50.846;4.326;2023-06-14T09:39:57;32.20;32.10
22714;DHT22;11524;50.846;4.326;2023-06-14T09:42:22;32.00;32.20
22714;DHT22;11524;50.846;4.326;2023-06-14T09:44:55;31.80;32.40
22714;DHT22;11524;50.846;4.326;2023-06-14T09:47:22;31.70;32.70
22714;DHT22;11524;50.846;4.326;2023-06-14T09:49:51;31.50;32.90
22714;DHT22;11524;50.846;4.326;2023-06-14T09:52:23;31.40;33.10
22714;DHT22;11524;50.846;4.326;2023-06-14T09:54:49;31.30;33.40
22714;DHT22;11524;50.846;4.326;2023-06-14T09:57:17;31.20;33.50
22714;DHT22;11524;50.846;4.326;2023-06-14T09:59:46;31.10;33.70
22714;DHT22;11524;50.846;4.326;2023-06-14T10:02:25;31.10;33.90
22714;DHT22;11524;50.846;4.326;2023-06-14T10:05:07;31.00;34.00
22714;DHT22;11524;50.846;4.326;2023-06-14T10:10:06;30.80;34.10
22714;DHT22;11524;50.846;4.326;2023-06-14T10:12:32;30.80;34.30
22714;DHT22;11524;50.846;4.326;2023-06-14T10:14:59;30.80;34.40
22714;DHT22;11524;50.846;4.326;2023-06-14T10:17:54;30.80;34.50
22714;DHT22;11524;50.846;4.326;2023-06-14T10:20:39;30.70;34.50
22714;DHT22;11524;50.846;4.326;2023-06-14T10:23:18;30.70;34.60
22714;DHT22;11524;50.846;4.326;2023-06-14T10:25:49;30.70;34.70
22714;DHT22;11524;50.846;4.326;2023-06-14T10:28:20;30.60;34.80
22714;DHT22;11524;50.846;4.326;2023-06-14T10:31:08;30.60;35.40
22714;DHT22;11524;50.846;4.326;2023-06-14T10:33:56;30.60;34.90
22714;DHT22;11524;50.846;4.326;2023-06-14T10:36:26;30.60;34.90
22714;DHT22;11524;50.846;4.326;2023-06-14T10:39:05;30.60;34.90
22714;DHT22;11524;50.846;4.326;2023-06-14T10:41:38;30.50;34.90
22714;DHT22;11524;50.846;4.326;2023-06-14T10:46:39;30.60;35.10
22714;DHT22;11524;50.846;4.326;2023-06-14T10:49:05;30.50;35.10
22714;DHT22;11524;50.846;4.326;2023-06-14T10:51:52;30.50;35.20
22714;DHT22;11524;50.846;4.326;2023-06-14T10:54:21;30.50;35.20
22714;DHT22;11524;50.846;4.326;2023-06-14T10:56:51;30.50;35.30
22714;DHT22;11524;50.846;4.326;2023-06-14T10:59:19;30.50;35.30
22714;DHT22;11524;50.846;4.326;2023-06-14T11:04:20;30.50;35.40
22714;DHT22;11524;50.846;4.326;2023-06-14T11:06:50;30.40;35.30
22714;DHT22;11524;50.846;4.326;2023-06-14T11:09:45;30.40;35.30
22714;DHT22;11524;50.846;4.326;2023-06-14T11:12:18;30.30;35.40
22714;DHT22;11524;50.846;4.326;2023-06-14T11:14:46;30.30;35.50
22714;DHT22;11524;50.846;4.326;2023-06-14T11:17:13;30.30;35.50
22714;DHT22;11524;50.846;4.326;2023-06-14T11:19:47;30.30;35.40
22714;DHT22;11524;50.846;4.326;2023-06-14T11:22:13;30.30;35.50
22714;DHT22;11524;50.846;4.326;2023-06-14T11:24:40;30.30;35.50
22714;DHT22;11524;50.846;4.326;2023-06-14T11:27:06;30.30;35.50
22714;DHT22;11524;50.846;4.326;2023-06-14T11:29:31;30.30;35.50
22714;DHT22;11524;50.846;4.326;2023-06-14T11:32:07;30.30;36.10
22714;DHT22;11524;50.846;4.326;2023-06-14T11:34:37;30.30;35.50
22714;DHT22;11524;50.846;4.326;2023-06-14T11:37:03;30.30;35.50
22714;DHT22;11524;50.846;4.326;2023-06-14T11:39:28;30.30;35.40
22714;DHT22;11524;50.846;4.326;2023-06-14T11:41:54;30.30;35.50
22714;DHT22;11524;50.846;4.326;2023-06-14T11:44:20;30.20;35.30
22714;DHT22;11524;50.846;4.326;2023-06-14T11:46:46;30.20;35.40
22714;DHT22;11524;50.846;4.326;2023-06-14T11:49:15;30.20;35.40
22714;DHT22;11524;50.846;4.326;2023-06-14T11:51:42;30.20;35.50
22714;DHT22;11524;50.846;4.326;2023-06-14T11:54:08;30.20;35.40
22714;DHT22;11524;50.846;4.326;2023-06-14T11:56:34;30.20;35.50
22714;DHT22;11524;50.846;4.326;2023-06-14T11:59:02;30.20;35.40
22714;DHT22;11524;50.846;4.326;2023-06-14T12:01:30;30.20;35.30
22714;DHT22;11524;50.846;4.326;2023-06-14T12:03:59;30.10;35.20
22714;DHT22;11524;50.846;4.326;2023-06-14T12:06:30;30.10;35.30
22714;DHT22;11524;50.846;4.326;2023-06-14T12:08:59;30.10;35.30
22714;DHT22;11524;50.846;4.326;2023-06-14T12:11:35;30.10;35.30
22714;DHT22;11524;50.846;4.326;2023-06-14T12:14:08;30.10;35.40
22714;DHT22;11524;50.846;4.326;2023-06-14T12:16:34;30.10;35.10
22714;DHT22;11524;50.846;4.326;2023-06-14T12:19:12;30.10;35.40
22714;DHT22;11524;50.846;4.326;2023-06-14T12:21:39;30.10;35.40
22714;DHT22;11524;50.846;4.326;2023-06-14T12:24:07;30.10;35.30
22714;DHT22;11524;50.846;4.326;2023-06-14T12:26:33;30.10;35.40
22714;DHT22;11524;50.846;4.326;2023-06-14T12:29:01;30.10;35.50
22714;DHT22;11524;50.846;4.326;2023-06-14T12:31:30;30.10;35.60
22714;DHT22;11524;50.846;4.326;2023-06-14T12:33:55;30.10;35.50
22714;DHT22;11524;50.846;4.326;2023-06-14T12:36:21;30.10;35.60
22714;DHT22;11524;50.846;4.326;2023-06-14T12:38:46;30.10;35.60
22714;DHT22;11524;50.846;4.326;2023-06-14T12:41:12;30.10;35.70
22714;DHT22;11524;50.846;4.326;2023-06-14T12:43:40;30.10;35.70
22714;DHT22;11524;50.846;4.326;2023-06-14T12:46:05;30.10;35.70
22714;DHT22;11524;50.846;4.326;2023-06-14T12:48:31;30.10;35.70
22714;DHT22;11524;50.846;4.326;2023-06-14T12:50:57;30.10;35.90
22714;DHT22;11524;50.846;4.326;2023-06-14T12:54:02;30.10;35.90
22714;DHT22;11524;50.846;4.326;2023-06-14T12:56:45;30.10;35.90
22714;DHT22;11524;50.846;4.326;2023-06-14T12:59:11;30.00;35.80
22714;DHT22;11524;50.846;4.326;2023-06-14T13:01:38;30.10;35.90
22714;DHT22;11524;50.846;4.326;2023-06-14T13:04:04;30.10;35.80
22714;DHT22;11524;50.846;4.326;2023-06-14T13:06:29;30.00;35.50
22714;DHT22;11524;50.846;4.326;2023-06-14T13:08:56;30.00;35.60
22714;DHT22;11524;50.846;4.326;2023-06-14T13:11:24;30.00;35.90
22714;DHT22;11524;50.846;4.326;2023-06-14T13:13:49;30.00;35.90
22714;DHT22;11524;50.846;4.326;2023-06-14T13:16:15;30.00;36.00
22714;DHT22;11524;50.846;4.326;2023-06-14T13:18:41;30.00;36.30
22714;DHT22;11524;50.846;4.326;2023-06-14T13:21:10;30.00;36.20
22714;DHT22;11524;50.846;4.326;2023-06-14T13:23:37;30.00;36.30
22714;DHT22;11524;50.846;4.326;2023-06-14T13:26:03;30.00;36.20
22714;DHT22;11524;50.846;4.326;2023-06-14T13:28:29;30.00;36.10
22714;DHT22;11524;50.846;4.326;2023-06-14T13:30:56;30.00;36.20
22714;DHT22;11524;50.846;4.326;2023-06-14T13:33:22;30.00;36.30
22714;DHT22;11524;50.846;4.326;2023-06-14T13:35:49;30.00;36.30
22714;DHT22;11524;50.846;4.326;2023-06-14T13:38:17;30.00;36.30
22714;DHT22;11524;50.846;4.326;2023-06-14T13:40:44;30.00;36.10
22714;DHT22;11524;50.846;4.326;2023-06-14T13:43:09;30.00;36.10
22714;DHT22;11524;50.846;4.326;2023-06-14T13:45:35;30.00;36.40
22714;DHT22;11524;50.846;4.326;2023-06-14T13:48:01;30.00;36.40
22714;DHT22;11524;50.846;4.326;2023-06-14T13:50:26;30.00;36.30
22714;DHT22;11524;50.846;4.326;2023-06-14T13:52:52;30.00;36.40
22714;DHT22;11524;50.846;4.326;2023-06-14T13:55:18;30.00;36.30
22714;DHT22;11524;50.846;4.326;2023-06-14T13:57:44;30.00;36.30
22714;DHT22;11524;50.846;4.326;2023-06-14T14:00:11;29.90;36.80
22714;DHT22;11524;50.846;4.326;2023-06-14T14:02:37;30.00;36.30
22714;DHT22;11524;50.846;4.326;2023-06-14T14:05:05;29.90;36.30
22714;DHT22;11524;50.846;4.326;2023-06-14T14:07:35;29.90;36.40
22714;DHT22;11524;50.846;4.326;2023-06-14T14:10:02;29.90;36.60
22714;DHT22;11524;50.846;4.326;2023-06-14T14:12:27;30.00;36.70
22714;DHT22;11524;50.846;4.326;2023-06-14T14:14:56;30.00;37.30
22714;DHT22;11524;50.846;4.326;2023-06-14T14:17:22;29.90;36.20
22714;DHT22;11524;50.846;4.326;2023-06-14T14:19:48;30.00;36.50
22714;DHT22;11524;50.846;4.326;2023-06-14T14:22:14;30.00;36.30
22714;DHT22;11524;50.846;4.326;2023-06-14T14:24:39;29.90;36.20
22714;DHT22;11524;50.846;4.326;2023-06-14T14:27:12;29.90;36.90
22714;DHT22;11524;50.846;4.326;2023-06-14T14:29:46;30.00;36.80
22714;DHT22;11524;50.846;4.326;2023-06-14T14:32:12;30.00;37.10
22714;DHT22;11524;50.846;4.326;2023-06-14T14:34:39;29.90;36.20
22714;DHT22;11524;50.846;4.326;2023-06-14T14:37:11;29.90;36.40
22714;DHT22;11524;50.846;4.326;2023-06-14T14:39:36;29.90;36.20
22714;DHT22;11524;50.846;4.326;2023-06-14T14:42:02;29.80;35.30
22714;DHT22;11524;50.846;4.326;2023-06-14T14:44:28;29.80;35.70
22714;DHT22;11524;50.846;4.326;2023-06-14T14:46:53;29.80;36.10
22714;DHT22;11524;50.846;4.326;2023-06-14T14:49:21;29.90;36.40
22714;DHT22;11524;50.846;4.326;2023-06-14T14:51:46;29.80;36.80
22714;DHT22;11524;50.846;4.326;2023-06-14T14:54:14;29.90;36.80
22714;DHT22;11524;50.846;4.326;2023-06-14T14:56:46;29.90;36.40
22714;DHT22;11524;50.846;4.326;2023-06-14T14:59:11;29.80;36.30
22714;DHT22;11524;50.846;4.326;2023-06-14T15:01:37;29.80;36.50
22714;DHT22;11524;50.846;4.326;2023-06-14T15:04:03;29.90;36.50
22714;DHT22;11524;50.846;4.326;2023-06-14T15:06:29;29.80;36.30
22714;DHT22;11524;50.846;4.326;2023-06-14T15:08:56;29.80;36.50
22714;DHT22;11524;50.846;4.326;2023-06-14T15:11:22;29.80;36.50
22714;DHT22;11524;50.846;4.326;2023-06-14T15:13:48;29.80;36.50
22714;DHT22;11524;50.846;4.326;2023-06-14T15:16:14;29.80;36.50
22714;DHT22;11524;50.846;4.326;2023-06-14T15:18:40;29.80;36.50
22714;DHT22;11524;50.846;4.326;2023-06-14T15:21:06;29.90;36.70
22714;DHT22;11524;50.846;4.326;2023-06-14T15:23:31;29.80;36.70
22714;DHT22;11524;50.846;4.326;2023-06-14T15:25:57;29.80;36.60
22714;DHT22;11524;50.846;4.326;2023-06-14T15:28:24;29.80;36.80
22714;DHT22;11524;50.846;4.326;2023-06-14T15:30:53;29.80;37.30
22714;DHT22;11524;50.846;4.326;2023-06-14T15:33:19;29.80;36.70
22714;DHT22;11524;50.846;4.326;2023-06-14T15:35:46;29.80;36.90
22714;DHT22;11524;50.846;4.326;2023-06-14T15:38:12;29.80;36.90
22714;DHT22;11524;50.846;4.326;2023-06-14T15:40:37;29.80;36.70